Time;durP1;ratioP1;P1;durP2;ratioP2;P2;SDS_P1;SDS_P2;PMS_P1;PMS_P2;Temp;Humidity;BMP_temperature;BMP_pressure;BME280_temperature;BME280_humidity;BME280_pressure;Samples;Min_cycle;Max_cycle;Signal;HPM_P1;HPM_P2
2021/04/09 00:00:12;;;;;;;11.50;9.43;;;2.70;98.50;;;;;;5073345;28;20228;-83
2021/04/09 00:02:39;;;;;;;11.73;9.52;;;2.70;98.50;;;;;;5073077;28;20207;-84
2021/04/09 00:05:07;;;;;;;10.10;9.27;;;2.70;98.50;;;;;;5073111;28;20259;-84
2021/04/09 00:07:34;;;;;;;9.30;8.40;;;2.70;98.60;;;;;;5073027;28;20210;-84
2021/04/09 00:10:01;;;;;;;11.48;10.35;;;2.70;98.60;;;;;;5073226;28;20249;-83
2021/04/09 00:12:27;;;;;;;8.50;7.68;;;2.70;98.60;;;;;;5073048;28;20206;-84
2021/04/09 00:14:53;;;;;;;10.40;9.02;;;2.70;98.60;;;;;;5072269;28;20207;-84
2021/04/09 00:17:20;;;;;;;9.90;8.90;;;2.70;98.60;;;;;;5073071;28;20209;-84
2021/04/09 00:19:46;;;;;;;11.10;10.00;;;2.60;98.60;;;;;;5072841;28;20232;-84
2021/04/09 00:22:12;;;;;;;10.10;9.20;;;2.60;98.60;;;;;;5072392;28;20215;-84
2021/04/09 00:24:39;;;;;;;9.25;8.38;;;2.60;98.70;;;;;;5072885;28;20208;-84
2021/04/09 00:27:06;;;;;;;13.23;9.90;;;2.60;98.70;;;;;;5072898;28;20209;-84
2021/04/09 00:29:33;;;;;;;11.82;10.13;;;2.60;98.80;;;;;;5072637;28;20233;-83
2021/04/09 00:31:59;;;;;;;13.50;9.98;;;2.50;98.90;;;;;;5072636;28;20209;-84
2021/04/09 00:34:25;;;;;;;11.85;10.13;;;2.50;98.90;;;;;;5072586;28;20206;-84
2021/04/09 00:36:51;;;;;;;10.52;9.35;;;2.40;98.90;;;;;;5072803;28;20209;-83
2021/04/09 00:39:18;;;;;;;10.85;9.82;;;2.40;99.00;;;;;;5072595;28;20236;-83
2021/04/09 00:41:45;;;;;;;11.88;10.68;;;2.40;99.10;;;;;;5072408;28;20220;-84
2021/04/09 00:44:12;;;;;;;12.70;10.38;;;2.30;99.30;;;;;;5072547;28;20254;-84
2021/04/09 00:46:39;;;;;;;15.32;10.93;;;2.30;99.50;;;;;;5072286;28;20208;-83
2021/04/09 00:49:05;;;;;;;11.55;10.40;;;2.30;99.60;;;;;;5072294;28;20220;-83
2021/04/09 00:51:33;;;;;;;13.05;11.75;;;2.20;99.60;;;;;;5071968;28;20225;-83
2021/04/09 00:53:59;;;;;;;11.20;10.10;;;2.20;99.60;;;;;;5072428;28;20216;-84
2021/04/09 00:56:29;;;;;;;12.77;11.30;;;2.20;99.70;;;;;;5072425;28;20229;-84
2021/04/09 00:58:57;;;;;;;11.15;9.73;;;2.20;99.70;;;;;;5072195;28;20212;-84
2021/04/09 01:01:24;;;;;;;11.60;10.38;;;2.20;99.70;;;;;;5072297;28;20695;-83
2021/04/09 01:03:51;;;;;;;11.98;9.75;;;2.20;99.70;;;;;;5071872;28;20205;-83
2021/04/09 01:06:18;;;;;;;10.40;9.40;;;2.20;99.70;;;;;;5072570;28;20284;-84
2021/04/09 01:08:44;;;;;;;11.10;10.10;;;2.10;99.70;;;;;;5072051;28;20588;-83
2021/04/09 01:11:10;;;;;;;10.00;9.15;;;2.10;99.80;;;;;;5072074;28;20242;-84
2021/04/09 01:13:37;;;;;;;9.45;8.52;;;2.10;99.90;;;;;;5071737;28;20580;-83
2021/04/09 01:16:06;;;;;;;11.60;9.07;;;2.10;99.90;;;;;;5071937;28;20266;-84
2021/04/09 01:18:41;;;;;;;8.70;7.88;;;2.00;99.80;;;;;;5071915;28;20283;-83
2021/04/09 01:21:18;;;;;;;11.57;8.63;;;2.00;99.70;;;;;;5072079;28;20225;-84
2021/04/09 01:23:53;;;;;;;8.60;7.72;;;2.00;99.60;;;;;;5071914;28;20621;-84
2021/04/09 01:27:07;;;;;;;9.07;8.20;;;2.00;99.50;;;;;;5071900;28;20216;-84
2021/04/09 01:30:10;;;;;;;9.15;8.27;;;2.00;99.60;;;;;;5071643;28;20237;-83
2021/04/09 01:32:38;;;;;;;8.65;7.90;;;2.00;99.60;;;;;;5071653;28;20579;-84
2021/04/09 01:35:07;;;;;;;9.15;7.28;;;2.00;99.60;;;;;;5071795;28;20708;-83
2021/04/09 01:37:39;;;;;;;7.40;6.78;;;2.00;99.60;;;;;;5071986;28;20205;-84
2021/04/09 01:40:10;;;;;;;9.13;8.20;;;2.00;99.90;;;;;;5071844;28;20231;-84
2021/04/09 01:42:39;;;;;;;11.05;8.52;;;2.00;99.60;;;;;;5071433;28;20207;-84
2021/04/09 01:45:09;;;;;;;6.63;6.03;;;2.00;99.60;;;;;;5071831;28;20693;-84
2021/04/09 01:47:38;;;;;;;7.93;7.20;;;2.00;99.60;;;;;;5071603;28;20209;-84
2021/04/09 01:50:10;;;;;;;8.02;7.25;;;2.00;99.20;;;;;;5071819;28;20226;-84
2021/04/09 01:52:36;;;;;;;8.23;7.15;;;2.00;99.10;;;;;;5071658;28;20212;-83
2021/04/09 01:55:07;;;;;;;6.72;6.13;;;2.00;99.20;;;;;;5071871;28;20231;-84
2021/04/09 01:57:34;;;;;;;9.23;6.65;;;2.00;99.20;;;;;;5071898;28;20213;-83
2021/04/09 02:00:01;;;;;;;7.95;6.63;;;2.00;99.10;;;;;;5071610;28;20287;-83
2021/04/09 02:02:28;;;;;;;7.68;6.90;;;2.00;99.20;;;;;;5071542;28;20697;-83
2021/04/09 02:04:56;;;;;;;6.95;6.35;;;2.00;99.00;;;;;;5071871;28;20209;-84
2021/04/09 02:07:24;;;;;;;7.85;6.90;;;2.00;98.70;;;;;;5071761;28;20214;-84
2021/04/09 02:09:51;;;;;;;6.53;5.97;;;2.00;98.60;;;;;;5071459;28;20235;-84
2021/04/09 02:12:18;;;;;;;7.38;6.68;;;2.00;98.60;;;;;;5071532;28;20210;-84
2021/04/09 02:14:46;;;;;;;6.97;6.25;;;2.00;98.70;;;;;;5071584;28;20738;-84
2021/04/09 02:17:14;;;;;;;8.88;6.50;;;2.10;98.70;;;;;;5071726;28;20205;-84
2021/04/09 02:19:42;;;;;;;9.63;6.40;;;2.10;98.40;;;;;;5071538;28;20232;-84
2021/04/09 02:22:10;;;;;;;7.10;6.40;;;2.20;98.30;;;;;;5071393;28;20205;-84
2021/04/09 02:24:36;;;;;;;6.53;5.68;;;2.20;98.10;;;;;;5071666;28;20267;-84
2021/04/09 02:27:03;;;;;;;6.57;5.93;;;2.20;97.90;;;;;;5071880;28;20216;-84
2021/04/09 02:29:30;;;;;;;8.13;6.22;;;2.20;97.80;;;;;;5071568;28;20251;-84
2021/04/09 02:31:56;;;;;;;6.57;5.88;;;2.20;97.90;;;;;;5071311;28;20231;-84
2021/04/09 02:34:23;;;;;;;7.28;5.53;;;2.30;97.70;;;;;;5071510;28;20207;-83
2021/04/09 02:36:50;;;;;;;6.97;6.28;;;2.40;97.50;;;;;;5071833;28;20235;-84
2021/04/09 02:39:22;;;;;;;6.25;4.97;;;2.40;97.30;;;;;;5073722;28;20209;-83
2021/04/09 02:41:55;;;;;;;6.53;5.93;;;2.50;97.20;;;;;;5073872;28;20678;-84
2021/04/09 02:44:21;;;;;;;5.90;5.40;;;2.50;97.10;;;;;;5075296;28;20205;-84
2021/04/09 02:46:51;;;;;;;7.45;5.70;;;2.50;97.00;;;;;;5074943;28;20264;-83
2021/04/09 02:49:25;;;;;;;9.73;6.35;;;2.50;97.10;;;;;;5074797;28;20202;-84
2021/04/09 02:51:54;;;;;;;7.60;6.30;;;2.50;96.80;;;;;;5074464;28;20225;-84
2021/04/09 02:54:22;;;;;;;6.32;5.72;;;2.50;96.70;;;;;;5074595;28;20212;-84
2021/04/09 02:56:50;;;;;;;7.40;6.97;;;2.60;96.60;;;;;;5074943;28;20215;-84
2021/04/09 02:59:19;;;;;;;6.80;5.95;;;2.60;96.60;;;;;;5074792;28;20228;-84
2021/04/09 03:01:46;;;;;;;6.25;5.65;;;2.60;96.70;;;;;;5074179;28;20683;-84
2021/04/09 03:04:13;;;;;;;6.57;6.03;;;2.60;96.80;;;;;;5074486;28;20206;-84
2021/04/09 03:06:42;;;;;;;6.95;6.05;;;2.60;96.80;;;;;;5074563;28;20566;-84
2021/04/09 03:09:09;;;;;;;6.65;5.72;;;2.60;96.70;;;;;;5074465;28;20228;-84
2021/04/09 03:11:39;;;;;;;7.35;6.55;;;2.60;96.70;;;;;;5074072;28;20722;-84
2021/04/09 03:14:06;;;;;;;6.07;5.47;;;2.60;96.60;;;;;;5074519;28;20579;-84
2021/04/09 03:16:37;;;;;;;6.03;5.40;;;2.60;96.60;;;;;;5074203;28;20220;-84
2021/04/09 03:19:03;;;;;;;7.70;5.68;;;2.60;96.70;;;;;;5074203;28;20205;-84
2021/04/09 03:21:30;;;;;;;8.98;6.95;;;2.50;96.60;;;;;;5073838;28;20242;-84
2021/04/09 03:23:56;;;;;;;6.25;5.60;;;2.50;96.60;;;;;;5074329;28;20213;-84
2021/04/09 03:26:22;;;;;;;7.68;6.43;;;2.50;96.60;;;;;;5074353;28;20214;-84
2021/04/09 03:28:49;;;;;;;7.55;6.72;;;2.50;96.60;;;;;;5074109;28;20216;-84
2021/04/09 03:31:15;;;;;;;5.90;5.40;;;2.50;96.70;;;;;;5073698;28;20230;-84
2021/04/09 03:33:42;;;;;;;7.35;5.35;;;2.50;96.80;;;;;;5073588;28;20751;-84
2021/04/09 03:36:08;;;;;;;8.93;4.65;;;2.50;97.10;;;;;;5074289;28;20214;-84
2021/04/09 03:38:34;;;;;;;5.63;5.13;;;2.50;96.70;;;;;;5073881;28;20254;-84
2021/04/09 03:41:01;;;;;;;6.28;5.35;;;2.50;96.50;;;;;;5074116;28;20228;-84
2021/04/09 03:43:27;;;;;;;9.50;6.63;;;2.50;96.40;;;;;;5073674;28;20260;-84
2021/04/09 03:45:54;;;;;;;9.90;6.70;;;2.60;96.50;;;;;;5074706;28;20211;-84
2021/04/09 03:48:20;;;;;;;5.30;4.70;;;2.60;96.80;;;;;;5074128;28;20615;-84
2021/04/09 03:50:47;;;;;;;5.47;5.07;;;2.60;96.30;;;;;;5073699;28;20247;-84
2021/04/09 03:53:13;;;;;;;5.90;5.05;;;2.60;96.20;;;;;;5073272;28;20212;-84
2021/04/09 03:55:39;;;;;;;7.32;6.45;;;2.60;96.20;;;;;;5073530;28;20212;-84
2021/04/09 03:58:06;;;;;;;6.13;5.53;;;2.50;96.00;;;;;;5073424;28;20212;-84
2021/04/09 04:00:32;;;;;;;6.15;5.57;;;2.50;96.00;;;;;;5073859;28;20226;-84
2021/04/09 04:02:59;;;;;;;7.30;5.68;;;2.50;95.90;;;;;;5073262;28;20292;-84
2021/04/09 04:05:25;;;;;;;9.80;6.18;;;2.60;95.80;;;;;;5073577;28;20203;-84
2021/04/09 04:07:52;;;;;;;7.25;6.55;;;2.70;95.70;;;;;;5073477;28;20205;-84
2021/04/09 04:10:18;;;;;;;7.90;5.75;;;2.70;95.60;;;;;;5073235;28;20602;-84
2021/04/09 04:12:44;;;;;;;7.57;6.88;;;2.70;95.60;;;;;;5073356;28;20196;-84
2021/04/09 04:15:11;;;;;;;8.80;6.38;;;2.70;95.50;;;;;;5073370;28;20705;-84
2021/04/09 04:17:37;;;;;;;7.35;6.60;;;2.70;95.50;;;;;;5072992;28;20207;-84
2021/04/09 04:20:06;;;;;;;6.43;5.78;;;2.70;95.40;;;;;;5073077;28;20226;-84
2021/04/09 04:22:32;;;;;;;7.43;6.68;;;2.80;95.50;;;;;;5072680;28;20287;-84
2021/04/09 04:24:58;;;;;;;7.70;6.95;;;2.70;95.10;;;;;;5073060;28;20206;-84
2021/04/09 04:27:25;;;;;;;7.65;6.90;;;2.70;95.50;;;;;;5072833;28;20212;-84
2021/04/09 04:29:51;;;;;;;8.35;7.65;;;2.80;94.90;;;;;;5073334;28;20230;-85
2021/04/09 04:32:17;;;;;;;11.63;7.60;;;2.80;95.00;;;;;;5075768;28;20224;-85
2021/04/09 04:34:43;;;;;;;7.32;6.07;;;2.80;94.90;;;;;;5075763;28;20484;-86
2021/04/09 04:37:11;;;;;;;8.40;7.30;;;2.80;94.90;;;;;;5076431;28;20215;-85
2021/04/09 04:39:37;;;;;;;10.18;8.20;;;2.90;94.60;;;;;;5075313;28;20230;-85
2021/04/09 04:42:06;;;;;;;8.27;7.50;;;2.90;94.70;;;;;;5074746;28;20210;-85
2021/04/09 04:44:33;;;;;;;9.52;8.60;;;2.80;94.80;;;;;;5075292;28;20207;-85
2021/04/09 04:46:59;;;;;;;8.70;8.00;;;2.80;94.70;;;;;;5075183;28;20204;-85
2021/04/09 04:49:25;;;;;;;7.82;6.75;;;2.90;94.70;;;;;;5074736;28;20301;-85
2021/04/09 04:51:51;;;;;;;7.95;7.25;;;2.90;94.60;;;;;;5075156;28;20642;-85
2021/04/09 04:54:18;;;;;;;10.48;8.02;;;2.90;94.60;;;;;;5075466;28;20216;-85
2021/04/09 04:56:45;;;;;;;9.98;8.18;;;2.90;94.60;;;;;;5074842;28;20707;-85
2021/04/09 04:59:11;;;;;;;9.38;6.72;;;3.00;94.50;;;;;;5074371;28;20211;-85
2021/04/09 05:01:37;;;;;;;11.95;7.68;;;2.90;94.50;;;;;;5073850;28;20576;-85
2021/04/09 05:04:04;;;;;;;9.27;8.38;;;2.90;94.50;;;;;;5075036;28;20206;-85
2021/04/09 05:06:30;;;;;;;8.23;7.43;;;2.90;94.70;;;;;;5074796;28;20206;-85
2021/04/09 05:08:57;;;;;;;7.93;7.05;;;2.90;94.60;;;;;;5074931;28;20294;-85
2021/04/09 05:11:24;;;;;;;14.65;9.00;;;2.90;94.60;;;;;;5074303;28;20224;-85
2021/04/09 05:13:50;;;;;;;14.98;9.90;;;3.00;94.70;;;;;;5074273;28;20210;-85
2021/04/09 05:16:17;;;;;;;8.70;7.88;;;2.90;94.60;;;;;;5074556;28;20209;-85
2021/04/09 05:18:43;;;;;;;8.55;7.70;;;3.10;94.50;;;;;;5074777;28;20276;-85
2021/04/09 05:21:09;;;;;;;7.38;6.63;;;3.10;94.40;;;;;;5073981;28;20222;-85
2021/04/09 05:23:36;;;;;;;10.02;8.43;;;3.20;94.40;;;;;;5074729;28;20253;-85
2021/04/09 05:26:02;;;;;;;9.43;8.23;;;3.20;94.30;;;;;;5074776;28;20205;-85
2021/04/09 05:28:29;;;;;;;7.80;7.13;;;3.20;94.20;;;;;;5073729;28;20227;-85
2021/04/09 05:30:56;;;;;;;8.63;7.68;;;3.30;94.20;;;;;;5074255;28;20232;-85
2021/04/09 05:33:22;;;;;;;11.30;7.38;;;3.40;93.90;;;;;;5073552;28;20197;-85
2021/04/09 05:35:49;;;;;;;7.97;6.97;;;3.40;94.10;;;;;;5074204;28;20217;-85
2021/04/09 05:38:15;;;;;;;10.50;8.38;;;3.50;94.00;;;;;;5074203;28;20208;-85
2021/04/09 05:40:41;;;;;;;10.15;7.57;;;3.50;94.20;;;;;;5074282;28;20228;-85
2021/04/09 05:43:08;;;;;;;9.43;7.80;;;3.70;94.20;;;;;;5074130;28;20662;-85
2021/04/09 05:45:35;;;;;;;13.73;8.52;;;3.70;94.10;;;;;;5074555;28;20201;-85
2021/04/09 05:48:04;;;;;;;9.52;8.63;;;3.80;94.20;;;;;;5075560;28;20208;-85
2021/04/09 05:50:32;;;;;;;10.15;8.55;;;3.90;94.20;;;;;;5075199;28;20311;-85
2021/04/09 05:52:58;;;;;;;9.10;8.32;;;4.00;94.40;;;;;;5075186;28;20215;-85
2021/04/09 05:55:24;;;;;;;12.35;7.25;;;4.10;94.20;;;;;;5074721;28;20204;-85
2021/04/09 05:57:51;;;;;;;8.13;7.43;;;4.10;94.40;;;;;;5074326;28;20208;-85
2021/04/09 06:00:18;;;;;;;13.93;9.35;;;4.20;94.30;;;;;;5073834;28;20729;-85
2021/04/09 06:02:45;;;;;;;7.93;7.15;;;4.20;94.10;;;;;;5073167;28;20591;-85
2021/04/09 06:05:12;;;;;;;7.78;7.07;;;4.30;93.70;;;;;;5073356;28;20607;-85
2021/04/09 06:07:39;;;;;;;9.23;6.93;;;4.40;93.50;;;;;;5072888;28;20199;-84
2021/04/09 06:10:06;;;;;;;8.60;7.30;;;4.50;93.50;;;;;;5072134;28;20225;-85
2021/04/09 06:12:33;;;;;;;7.82;7.00;;;4.50;93.70;;;;;;5073285;28;20217;-85
2021/04/09 06:14:59;;;;;;;7.35;6.65;;;4.60;94.00;;;;;;5075430;28;20208;-85
2021/04/09 06:17:26;;;;;;;10.27;9.38;;;4.70;93.70;;;;;;5075382;28;20262;-85
2021/04/09 06:19:53;;;;;;;10.48;6.63;;;4.80;93.70;;;;;;5075164;28;20228;-85
2021/04/09 06:22:19;;;;;;;8.20;7.28;;;4.90;93.70;;;;;;5074814;28;20197;-85
2021/04/09 06:24:45;;;;;;;8.57;6.93;;;5.00;93.40;;;;;;5075102;28;20209;-85
2021/04/09 06:27:12;;;;;;;9.10;7.60;;;5.10;93.50;;;;;;5075318;28;20201;-85
2021/04/09 06:29:39;;;;;;;8.77;6.35;;;5.20;93.30;;;;;;5074742;28;20236;-85
2021/04/09 06:32:06;;;;;;;10.88;6.25;;;5.40;92.90;;;;;;5074837;28;20224;-84
2021/04/09 06:34:32;;;;;;;7.95;6.97;;;5.50;92.40;;;;;;5075234;28;20291;-84
2021/04/09 06:36:59;;;;;;;6.45;5.70;;;5.60;92.20;;;;;;5074842;28;20202;-84
2021/04/09 06:39:25;;;;;;;7.15;6.43;;;5.70;92.00;;;;;;5074991;28;20204;-84
2021/04/09 06:41:52;;;;;;;7.57;6.15;;;5.70;92.20;;;;;;5074836;28;20252;-84
2021/04/09 06:44:18;;;;;;;8.20;7.50;;;5.80;91.70;;;;;;5074943;28;20212;-84
2021/04/09 06:46:45;;;;;;;6.60;5.97;;;5.90;91.60;;;;;;5075522;28;20331;-84
2021/04/09 06:49:12;;;;;;;9.40;6.03;;;6.00;91.00;;;;;;5075024;28;20662;-85
2021/04/09 06:51:39;;;;;;;7.55;5.97;;;6.10;90.70;;;;;;5074282;28;20224;-84
2021/04/09 06:54:11;;;;;;;7.95;5.57;;;6.20;90.60;;;;;;5077597;28;20581;-84
2021/04/09 06:56:38;;;;;;;8.60;5.68;;;6.30;90.50;;;;;;5081558;28;20209;-84
2021/04/09 06:59:05;;;;;;;8.48;6.82;;;6.40;90.80;;;;;;5079885;28;20205;-84
2021/04/09 07:01:32;;;;;;;9.50;5.90;;;6.60;90.70;;;;;;5080551;28;20263;-83
2021/04/09 07:03:58;;;;;;;5.75;5.25;;;6.70;90.20;;;;;;5080451;28;20209;-83
2021/04/09 07:06:29;;;;;;;7.28;5.90;;;6.90;89.30;;;;;;5081077;28;20220;-82
2021/04/09 07:08:56;;;;;;;7.72;6.00;;;7.00;87.50;;;;;;5080227;28;20205;-83
2021/04/09 07:11:23;;;;;;;6.85;5.18;;;7.20;85.80;;;;;;5080256;28;20225;-83
2021/04/09 07:13:50;;;;;;;6.88;6.18;;;7.30;85.50;;;;;;5079581;28;20205;-83
2021/04/09 07:16:16;;;;;;;6.55;5.90;;;7.40;84.50;;;;;;5079741;28;20201;-83
2021/04/09 07:18:48;;;;;;;5.53;5.03;;;7.50;83.90;;;;;;5079310;28;20205;-82
2021/04/09 07:21:25;;;;;;;7.03;6.15;;;7.60;82.90;;;;;;5079220;28;20223;-82
2021/04/09 07:24:22;;;;;;;6.97;5.60;;;7.70;82.80;;;;;;5079660;28;20205;-83
2021/04/09 07:26:50;;;;;;;4.63;4.22;;;7.90;83.00;;;;;;5079115;28;20200;-83
2021/04/09 07:29:38;;;;;;;6.07;5.47;;;8.00;82.70;;;;;;5077784;28;20740;-81
2021/04/09 07:32:32;;;;;;;6.20;5.60;;;8.10;82.10;;;;;;5079400;28;20232;-83
2021/04/09 07:35:03;;;;;;;6.22;5.70;;;8.30;82.20;;;;;;5078986;28;20205;-83
2021/04/09 07:37:31;;;;;;;19.58;7.60;;;8.40;80.70;;;;;;5078982;28;20219;-83
2021/04/09 07:40:00;;;;;;;7.03;6.32;;;8.50;82.00;;;;;;5081299;28;20220;-82
2021/04/09 07:42:31;;;;;;;6.75;5.05;;;8.60;81.30;;;;;;5092203;28;20192;-83
2021/04/09 07:44:59;;;;;;;9.38;6.05;;;8.70;80.90;;;;;;5097427;28;20623;-84
2021/04/09 07:47:27;;;;;;;7.72;6.97;;;8.90;80.80;;;;;;5090798;28;20281;-83
2021/04/09 07:50:04;;;;;;;9.63;5.85;;;9.10;79.80;;;;;;5096946;28;20225;-83
2021/04/09 07:52:44;;;;;;;10.32;5.75;;;9.30;80.80;;;;;;5093973;28;20228;-82
2021/04/09 07:55:21;;;;;;;6.60;6.00;;;9.50;80.80;;;;;;5094734;28;20726;-84
2021/04/09 07:57:49;;;;;;;6.13;5.63;;;9.70;79.90;;;;;;5096714;28;20505;-83
2021/04/09 08:00:29;;;;;;;7.67;6.30;;;9.80;80.00;;;;;;5071143;28;20477;-83
2021/04/09 08:02:56;;;;;;;11.43;6.80;;;10.00;78.80;;;;;;5075946;28;20448;-82
2021/04/09 08:05:24;;;;;;;6.43;5.20;;;10.20;77.30;;;;;;5077057;28;20447;-82
2021/04/09 08:07:51;;;;;;;6.03;5.43;;;10.40;78.30;;;;;;5077414;28;20445;-83
2021/04/09 08:10:25;;;;;;;5.43;4.90;;;10.50;72.90;;;;;;5073817;28;20470;-83
2021/04/09 08:12:54;;;;;;;6.90;4.73;;;10.70;73.70;;;;;;5061636;28;20474;-84
2021/04/09 08:15:23;;;;;;;6.13;4.20;;;10.80;72.50;;;;;;5078119;28;20962;-83
2021/04/09 08:18:03;;;;;;;5.57;5.07;;;11.00;71.70;;;;;;5072900;28;20507;-84
2021/04/09 08:20:34;;;;;;;5.17;4.67;;;11.10;70.30;;;;;;5073146;28;20564;-84
2021/04/09 08:23:04;;;;;;;3.83;3.53;;;11.20;68.60;;;;;;5073160;28;20455;-84
2021/04/09 08:25:31;;;;;;;5.07;3.50;;;11.20;66.10;;;;;;5073561;28;20994;-85
2021/04/09 08:28:00;;;;;;;4.40;4.00;;;11.20;64.90;;;;;;5073561;28;20514;-85
2021/04/09 08:30:28;;;;;;;4.40;4.00;;;11.20;63.00;;;;;;5073446;28;20889;-84
2021/04/09 08:32:56;;;;;;;4.83;4.43;;;11.30;63.80;;;;;;5073579;28;20457;-85
2021/04/09 08:35:23;;;;;;;6.83;3.57;;;11.30;63.00;;;;;;5072647;28;20541;-85
2021/04/09 08:37:50;;;;;;;5.13;4.33;;;11.30;63.10;;;;;;5072906;28;20464;-85
2021/04/09 08:40:18;;;;;;;4.60;4.20;;;11.50;64.30;;;;;;5072674;28;20646;-82
2021/04/09 08:42:55;;;;;;;4.23;3.93;;;11.50;63.50;;;;;;5072374;28;20450;-85
2021/04/09 08:45:22;;;;;;;4.43;4.03;;;11.60;61.80;;;;;;5072846;28;20454;-85
2021/04/09 08:47:55;;;;;;;3.70;3.40;;;11.60;61.10;;;;;;5070671;28;20955;-84
2021/04/09 08:50:22;;;;;;;6.20;4.00;;;11.70;61.70;;;;;;5072323;28;20475;-85
2021/04/09 08:52:48;;;;;;;5.17;4.20;;;11.70;61.60;;;;;;5072459;28;20454;-84
2021/04/09 08:55:17;;;;;;;5.20;3.73;;;11.80;62.10;;;;;;5072491;28;20464;-84
2021/04/09 08:57:45;;;;;;;5.40;4.43;;;11.70;60.10;;;;;;5074153;28;20453;-84
2021/04/09 09:00:24;;;;;;;4.40;3.97;;;11.70;60.00;;;;;;5072707;28;20983;-84
2021/04/09 09:02:52;;;;;;;4.70;3.80;;;11.80;60.40;;;;;;5072323;28;20460;-84
2021/04/09 09:05:20;;;;;;;4.00;3.70;;;11.90;60.50;;;;;;5072302;28;20450;-84
2021/04/09 09:08:04;;;;;;;3.80;3.50;;;12.00;60.70;;;;;;5073354;28;20451;-83
2021/04/09 09:10:55;;;;;;;3.53;3.03;;;12.00;59.50;;;;;;5072275;28;20474;-86
2021/04/09 09:13:30;;;;;;;4.47;3.70;;;12.20;59.20;;;;;;5071705;28;20449;-83
2021/04/09 09:16:13;;;;;;;3.67;3.40;;;12.30;57.80;;;;;;5070256;28;20450;-84
2021/04/09 09:18:51;;;;;;;4.00;3.63;;;12.40;57.80;;;;;;5072487;28;20453;-84
2021/04/09 09:21:25;;;;;;;4.60;4.00;;;12.40;57.00;;;;;;5072346;28;20489;-84
2021/04/09 09:23:53;;;;;;;4.83;4.43;;;12.40;56.60;;;;;;5074477;28;20476;-83
2021/04/09 09:26:21;;;;;;;4.80;3.17;;;12.40;56.20;;;;;;5073836;28;20458;-83
2021/04/09 09:29:31;;;;;;;4.83;4.40;;;12.60;56.00;;;;;;5074265;28;20450;-89
2021/04/09 09:32:01;;;;;;;5.80;4.10;;;12.70;56.70;;;;;;5064795;28;20486;-84
2021/04/09 09:34:35;;;;;;;3.17;2.97;;;12.60;54.00;;;;;;5071202;28;20463;-83
2021/04/09 09:37:06;;;;;;;4.40;3.13;;;12.70;53.80;;;;;;5071735;28;20459;-84
2021/04/09 09:39:37;;;;;;;3.23;3.00;;;12.80;52.80;;;;;;5071568;28;20998;-85
2021/04/09 09:42:06;;;;;;;2.80;2.47;;;12.70;51.60;;;;;;5071346;28;20453;-84
2021/04/09 09:44:46;;;;;;;4.13;2.83;;;12.70;51.80;;;;;;5071763;28;20459;-84
2021/04/09 09:47:21;;;;;;;4.60;3.53;;;12.60;51.80;;;;;;5075323;28;20465;-84
2021/04/09 09:50:20;;;;;;;3.33;3.10;;;12.60;52.00;;;;;;5075852;28;20473;-83
2021/04/09 09:53:03;;;;;;;3.40;3.10;;;12.60;52.00;;;;;;5075979;28;20518;-87
2021/04/09 09:55:46;;;;;;;3.97;3.47;;;12.80;52.00;;;;;;5076673;28;20447;-89
2021/04/09 09:58:13;;;;;;;3.60;3.30;;;12.80;51.40;;;;;;5076055;28;20436;-87
2021/04/09 10:00:47;;;;;;;3.03;2.83;;;13.00;51.10;;;;;;5075346;28;20520;-85
2021/04/09 10:03:20;;;;;;;4.13;2.90;;;13.10;51.40;;;;;;5074777;28;20451;-85
2021/04/09 10:09:52;;;;;;;5.10;3.30;;;13.40;52.40;;;;;;5075538;28;20476;-87
2021/04/09 10:29:33;;;;;;;3.70;3.37;;;14.10;49.40;;;;;;4915483;29;20439;-88
2021/04/09 10:32:01;;;;;;;3.87;3.53;;;14.20;49.40;;;;;;4935760;29;20509;-87
2021/04/09 10:34:30;;;;;;;3.33;2.63;;;14.30;48.60;;;;;;5041543;28;20474;-88
2021/04/09 10:36:56;;;;;;;3.53;3.23;;;14.20;48.70;;;;;;5053542;28;20528;-88
2021/04/09 10:39:25;;;;;;;3.70;3.40;;;14.30;49.50;;;;;;5053782;28;20502;-87
2021/04/09 10:41:53;;;;;;;3.50;3.20;;;14.30;49.30;;;;;;5061755;28;20447;-88
2021/04/09 10:44:21;;;;;;;3.47;3.07;;;14.40;49.60;;;;;;5070648;28;20455;-88
2021/04/09 10:46:53;;;;;;;3.37;3.10;;;14.50;48.90;;;;;;5088819;28;20446;-86
2021/04/09 10:49:21;;;;;;;4.47;3.87;;;14.50;48.90;;;;;;5093911;28;20522;-85
2021/04/09 10:51:50;;;;;;;5.33;3.97;;;14.50;48.70;;;;;;5094859;28;20478;-86
2021/04/09 10:54:19;;;;;;;3.33;3.00;;;14.50;49.10;;;;;;5093434;28;20450;-85
2021/04/09 10:56:52;;;;;;;5.00;3.47;;;14.50;48.50;;;;;;5075158;28;20455;-87
2021/04/09 10:59:36;;;;;;;3.80;3.50;;;14.50;48.90;;;;;;5075529;28;20466;-84
2021/04/09 11:02:37;;;;;;;3.80;3.50;;;14.50;48.70;;;;;;5078214;28;20451;-83
2021/04/09 11:05:17;;;;;;;3.10;2.90;;;14.50;48.80;;;;;;5013664;28;20899;-86
2021/04/09 11:07:45;;;;;;;4.47;3.30;;;14.50;48.60;;;;;;5016803;28;20469;-86
2021/04/09 11:10:16;;;;;;;3.17;2.87;;;14.50;48.60;;;;;;5047654;28;20489;-86
2021/04/09 11:12:46;;;;;;;6.63;3.10;;;14.50;48.80;;;;;;5076496;28;20436;-85
2021/04/09 11:15:15;;;;;;;4.10;3.73;;;14.40;47.90;;;;;;5075350;28;20443;-84
2021/04/09 11:17:53;;;;;;;3.87;3.53;;;14.40;48.10;;;;;;5074515;28;20814;-84
2021/04/09 11:20:23;;;;;;;4.07;3.73;;;14.30;48.50;;;;;;5074590;28;20471;-84
2021/04/09 11:22:59;;;;;;;3.50;3.20;;;14.30;48.70;;;;;;5073867;28;20497;-83
2021/04/09 11:25:31;;;;;;;3.60;3.30;;;14.40;49.20;;;;;;5075434;28;20447;-84
2021/04/09 11:27:58;;;;;;;3.40;3.03;;;14.60;48.40;;;;;;5075576;28;20452;-83
2021/04/09 11:30:24;;;;;;;5.10;3.50;;;14.70;47.80;;;;;;5076703;28;20472;-84
2021/04/09 11:32:53;;;;;;;6.03;3.83;;;14.70;47.70;;;;;;5073710;28;20537;-84
2021/04/09 11:35:22;;;;;;;3.57;3.27;;;14.70;48.30;;;;;;5074107;28;20501;-84
2021/04/09 11:37:50;;;;;;;3.83;2.60;;;14.90;47.90;;;;;;5086762;28;20526;-84
2021/04/09 11:40:32;;;;;;;4.03;3.63;;;15.00;47.70;;;;;;5094557;28;20466;-84
2021/04/09 11:42:58;;;;;;;4.07;3.07;;;15.10;47.50;;;;;;5095155;28;20487;-83
2021/04/09 11:45:38;;;;;;;4.03;3.23;;;15.20;46.40;;;;;;5094145;28;20442;-83
2021/04/09 11:48:22;;;;;;;4.03;2.80;;;15.40;46.90;;;;;;5094975;28;20844;-84
2021/04/09 11:50:48;;;;;;;3.60;2.70;;;15.60;46.10;;;;;;5094492;28;21031;-84
2021/04/09 11:53:14;;;;;;;4.53;2.90;;;15.80;46.20;;;;;;5094665;28;20446;-84
2021/04/09 11:55:42;;;;;;;2.23;2.03;;;16.00;44.80;;;;;;5093880;28;20483;-84
2021/04/09 11:58:19;;;;;;;2.47;2.27;;;16.10;44.50;;;;;;5097544;28;20456;-84
2021/04/09 12:04:42;;;;;;;2.33;2.00;;;16.50;43.00;;;;;;5092794;28;20466;-87
2021/04/09 12:07:15;;;;;;;4.50;2.17;;;16.90;42.80;;;;;;5094333;28;20432;-88
2021/04/09 12:09:43;;;;;;;2.87;2.67;;;17.40;44.00;;;;;;5093192;28;20474;-87
2021/04/09 12:12:15;;;;;;;2.77;2.57;;;17.80;41.80;;;;;;5093742;28;20442;-89
2021/04/09 12:14:45;;;;;;;2.13;1.93;;;18.40;40.80;;;;;;5093749;28;20453;-88
2021/04/09 12:17:15;;;;;;;2.97;2.40;;;18.80;39.10;;;;;;5093885;28;20461;-85
2021/04/09 12:19:44;;;;;;;2.90;2.20;;;19.10;39.50;;;;;;5093273;28;20470;-85
2021/04/09 12:22:10;;;;;;;2.33;1.83;;;19.60;40.40;;;;;;5096017;28;20474;-84
2021/04/09 12:24:38;;;;;;;3.57;1.90;;;20.00;37.40;;;;;;5093898;28;20465;-85
2021/04/09 12:27:12;;;;;;;3.30;2.03;;;20.20;36.60;;;;;;5093221;28;20505;-87
2021/04/09 12:29:39;;;;;;;4.27;1.90;;;20.40;35.80;;;;;;5088724;28;20509;-87
2021/04/09 12:32:07;;;;;;;2.50;2.20;;;20.50;34.80;;;;;;5092050;28;20456;-89
2021/04/09 12:34:33;;;;;;;2.97;2.77;;;20.50;34.70;;;;;;5091993;28;20508;-88
2021/04/09 12:37:00;;;;;;;3.60;2.43;;;20.40;35.20;;;;;;5092740;28;20504;-88
2021/04/09 12:39:26;;;;;;;2.33;2.13;;;20.60;34.70;;;;;;5093067;28;20499;-89
2021/04/09 12:41:53;;;;;;;3.33;2.60;;;20.50;34.20;;;;;;5092811;28;20493;-89
2021/04/09 12:44:20;;;;;;;2.60;2.40;;;20.40;34.50;;;;;;5092665;28;20970;-88
2021/04/09 12:46:48;;;;;;;2.40;1.97;;;20.30;34.30;;;;;;5092467;28;20455;-89
2021/04/09 12:49:15;;;;;;;2.60;1.60;;;20.40;33.60;;;;;;5092716;28;20459;-88
2021/04/09 12:51:42;;;;;;;3.27;2.50;;;20.30;33.80;;;;;;5092535;28;20450;-88
2021/04/09 12:54:09;;;;;;;6.00;2.97;;;20.00;34.30;;;;;;5092632;28;20453;-88
2021/04/09 12:56:37;;;;;;;2.90;1.80;;;19.80;35.70;;;;;;5092599;28;20452;-84
2021/04/09 12:59:04;;;;;;;2.67;2.37;;;19.90;34.50;;;;;;5092619;28;20940;-90
2021/04/09 13:01:30;;;;;;;2.20;1.77;;;19.70;34.20;;;;;;5092846;28;20515;-91
2021/04/09 13:03:56;;;;;;;2.53;2.23;;;19.10;34.60;;;;;;5093795;28;20442;-89
2021/04/09 13:06:23;;;;;;;4.00;3.60;;;18.70;35.20;;;;;;5087905;28;20499;-89
2021/04/09 13:08:49;;;;;;;2.47;2.10;;;18.50;35.30;;;;;;5071848;28;20450;-88
2021/04/09 13:11:16;;;;;;;2.33;2.23;;;18.70;36.20;;;;;;5072090;28;20444;-90
2021/04/09 13:13:43;;;;;;;4.23;2.00;;;19.00;36.70;;;;;;5071843;28;20453;-88
2021/04/09 13:16:09;;;;;;;2.60;2.33;;;19.40;35.20;;;;;;5071907;28;21001;-88
2021/04/09 13:18:36;;;;;;;2.80;1.80;;;19.60;35.70;;;;;;5073227;28;20451;-88
2021/04/09 13:21:04;;;;;;;5.77;2.93;;;20.10;35.20;;;;;;5071572;28;20528;-88
2021/04/09 13:23:31;;;;;;;2.33;1.90;;;20.40;34.70;;;;;;5072258;28;20924;-88
2021/04/09 13:25:57;;;;;;;2.37;2.27;;;20.50;34.60;;;;;;5072243;28;20804;-87